createdAt,value
2023-05-05T00:00:58.825Z,8.90
2023-05-05T00:03:26.690Z,8.90
2023-05-05T00:05:54.815Z,8.90
2023-05-05T00:08:22.840Z,8.80
2023-05-05T00:10:51.588Z,8.80
2023-05-05T00:13:19.449Z,8.70
2023-05-05T00:15:47.932Z,8.70
2023-05-05T00:18:17.463Z,8.60
2023-05-05T00:20:46.868Z,8.60
2023-05-05T00:23:14.615Z,8.60
2023-05-05T00:25:41.487Z,8.50
2023-05-05T00:28:08.377Z,8.50
2023-05-05T00:30:35.198Z,8.50
2023-05-05T00:33:02.137Z,8.40
2023-05-05T00:35:29.028Z,8.20
2023-05-05T00:37:55.851Z,8.20
2023-05-05T00:40:22.783Z,8.20
2023-05-05T00:42:52.532Z,8.20
2023-05-05T00:45:20.413Z,8.10
2023-05-05T00:47:54.056Z,8.10
2023-05-05T00:50:24.414Z,8.10
2023-05-05T00:52:55.385Z,8.10
2023-05-05T00:55:22.368Z,8.10
2023-05-05T00:57:49.981Z,8.10
2023-05-05T01:00:17.988Z,8.00
2023-05-05T01:02:45.518Z,8.00
2023-05-05T01:05:14.410Z,8.00
2023-05-05T01:07:41.215Z,7.90
2023-05-05T01:10:38.590Z,7.90
2023-05-05T01:13:05.401Z,7.90
2023-05-05T01:15:36.791Z,7.90
2023-05-05T01:18:27.260Z,7.90
2023-05-05T01:21:04.951Z,7.90
2023-05-05T01:24:06.908Z,7.80
2023-05-05T01:26:33.694Z,7.80
2023-05-05T01:29:27.221Z,7.80
2023-05-05T01:31:57.504Z,7.80
2023-05-05T01:35:00.701Z,7.80
2023-05-05T01:37:36.921Z,7.80
2023-05-05T01:40:08.431Z,7.90
2023-05-05T01:42:38.203Z,7.90
2023-05-05T01:45:06.840Z,7.90
2023-05-05T01:47:34.067Z,7.80
2023-05-05T01:50:03.983Z,7.80
2023-05-05T01:52:31.495Z,7.80
2023-05-05T01:54:59.754Z,7.80
2023-05-05T01:57:29.515Z,7.80
2023-05-05T01:59:58.242Z,7.80
2023-05-05T02:02:26.819Z,7.80
2023-05-05T02:04:56.454Z,7.70
2023-05-05T02:07:24.381Z,7.70
2023-05-05T02:09:52.417Z,7.70
2023-05-05T02:12:20.805Z,7.70
2023-05-05T02:14:48.767Z,7.70
2023-05-05T02:17:17.200Z,7.70
2023-05-05T02:19:45.808Z,7.70
2023-05-05T02:22:12.754Z,7.70
2023-05-05T02:24:39.629Z,7.70
2023-05-05T02:27:08.347Z,7.70
2023-05-05T02:29:38.546Z,7.70
2023-05-05T02:32:14.270Z,7.70
2023-05-05T02:34:44.681Z,7.60
2023-05-05T02:37:15.846Z,7.60
2023-05-05T02:39:49.758Z,7.70
2023-05-05T02:42:19.955Z,7.70
2023-05-05T02:44:48.452Z,7.70
2023-05-05T02:47:15.241Z,7.70
2023-05-05T02:49:43.248Z,7.70
2023-05-05T02:52:10.213Z,7.70
2023-05-05T02:54:37.496Z,7.70
2023-05-05T02:57:04.656Z,7.60
2023-05-05T02:59:58.023Z,7.70
2023-05-05T03:02:43.474Z,7.70
2023-05-05T03:05:16.167Z,7.70
2023-05-05T03:07:59.253Z,7.70
2023-05-05T03:10:57.494Z,7.70
2023-05-05T03:13:26.934Z,7.70
2023-05-05T03:15:56.299Z,7.70
2023-05-05T03:18:25.457Z,7.70
2023-05-05T03:20:53.365Z,7.70
2023-05-05T03:23:21.117Z,7.70
2023-05-05T03:25:49.453Z,7.70
2023-05-05T03:28:17.452Z,7.70
2023-05-05T03:30:44.511Z,7.70
2023-05-05T03:33:12.040Z,7.70
2023-05-05T03:35:38.892Z,7.70
2023-05-05T03:38:05.768Z,7.60
2023-05-05T03:40:43.558Z,7.70
2023-05-05T03:43:11.466Z,7.70
2023-05-05T03:45:38.447Z,7.70
2023-05-05T03:48:06.222Z,7.70
2023-05-05T03:50:33.094Z,7.70
2023-05-05T03:52:59.907Z,7.80
2023-05-05T03:55:26.776Z,7.80
2023-05-05T03:57:53.603Z,7.80
2023-05-05T04:00:20.472Z,7.70
2023-05-05T04:02:47.453Z,7.80
2023-05-05T04:05:14.370Z,7.80
2023-05-05T04:07:41.184Z,7.80
2023-05-05T04:10:08.912Z,7.70
2023-05-05T04:12:35.929Z,7.80
2023-05-05T04:15:02.715Z,7.70
2023-05-05T04:17:29.631Z,7.80
2023-05-05T04:19:56.426Z,7.80
2023-05-05T04:22:23.383Z,7.90
2023-05-05T04:24:50.805Z,7.90
2023-05-05T04:27:17.678Z,8.00
2023-05-05T04:29:44.547Z,8.10
2023-05-05T04:32:11.333Z,8.20
2023-05-05T04:34:38.100Z,8.20
2023-05-05T04:37:04.908Z,8.30
2023-05-05T04:39:31.754Z,8.40
2023-05-05T04:41:58.630Z,8.50
2023-05-05T04:44:25.801Z,8.60
2023-05-05T04:46:52.746Z,8.70
2023-05-05T04:49:19.631Z,8.70
2023-05-05T04:51:46.743Z,8.80
2023-05-05T04:54:13.612Z,8.90
2023-05-05T04:56:40.811Z,9.10
2023-05-05T04:59:07.680Z,9.10
2023-05-05T05:01:36.199Z,9.10
2023-05-05T05:04:05.042Z,9.20
2023-05-05T05:06:32.302Z,9.30
2023-05-05T05:08:59.129Z,9.40
2023-05-05T05:11:26.041Z,9.50
2023-05-05T05:13:53.163Z,9.60
2023-05-05T05:16:20.134Z,9.80
2023-05-05T05:18:47.065Z,9.90
2023-05-05T05:21:13.931Z,10.00
2023-05-05T05:23:40.772Z,10.20
2023-05-05T05:26:07.567Z,10.30
2023-05-05T05:28:34.349Z,10.40
2023-05-05T05:31:01.402Z,10.50
2023-05-05T05:33:28.240Z,10.70
2023-05-05T05:35:55.044Z,10.80
2023-05-05T05:38:22.005Z,10.90
2023-05-05T05:40:48.820Z,11.00
2023-05-05T05:43:15.633Z,11.10
2023-05-05T05:45:43.105Z,11.10
2023-05-05T05:48:09.999Z,11.20
2023-05-05T05:50:37.167Z,11.20
2023-05-05T05:53:04.042Z,11.30
2023-05-05T05:55:30.838Z,11.40
2023-05-05T05:57:57.645Z,11.40
2023-05-05T06:00:24.753Z,11.50
2023-05-05T06:02:51.745Z,11.60
2023-05-05T06:05:18.637Z,11.70
2023-05-05T06:07:45.481Z,11.80
2023-05-05T06:10:26.623Z,11.90
2023-05-05T06:12:54.617Z,12.00
2023-05-05T06:15:21.406Z,12.10
2023-05-05T06:17:48.311Z,12.20
2023-05-05T06:20:15.175Z,12.30
2023-05-05T06:22:41.970Z,12.40
2023-05-05T06:25:09.047Z,12.60
2023-05-05T06:27:35.987Z,12.70
2023-05-05T06:30:02.844Z,12.80
2023-05-05T06:32:29.630Z,13.00
2023-05-05T06:34:56.337Z,13.20
2023-05-05T06:37:23.112Z,13.50
2023-05-05T06:39:49.840Z,13.50
2023-05-05T06:42:16.585Z,13.70
2023-05-05T06:44:43.358Z,13.80
2023-05-05T06:47:10.121Z,13.90
2023-05-05T06:49:36.897Z,14.00
2023-05-05T06:52:03.746Z,14.10
2023-05-05T06:54:30.491Z,14.30
2023-05-05T06:57:00.262Z,14.40
2023-05-05T06:59:27.237Z,14.50
2023-05-05T07:01:56.607Z,14.60
2023-05-05T07:04:23.458Z,14.70
2023-05-05T07:06:50.188Z,14.80
2023-05-05T07:09:17.507Z,14.90
2023-05-05T07:11:47.092Z,15.10
2023-05-05T07:14:13.955Z,15.30
2023-05-05T07:16:40.886Z,15.30
2023-05-05T07:19:07.788Z,15.60
2023-05-05T07:21:35.026Z,15.60
2023-05-05T07:24:03.308Z,15.80
2023-05-05T07:26:30.114Z,15.90
2023-05-05T07:28:59.931Z,16.00
2023-05-05T07:31:35.665Z,16.20
2023-05-05T07:34:02.481Z,16.40
2023-05-05T07:36:31.685Z,16.60
2023-05-05T07:38:58.588Z,16.70
2023-05-05T07:41:25.371Z,16.90
2023-05-05T07:43:52.124Z,17.00
2023-05-05T07:46:21.794Z,17.20
2023-05-05T07:48:50.764Z,17.30
2023-05-05T07:51:17.528Z,17.40
2023-05-05T07:53:44.452Z,17.60
2023-05-05T07:56:11.199Z,17.80
2023-05-05T07:58:37.889Z,18.10
2023-05-05T08:01:08.945Z,18.30
2023-05-05T08:03:38.777Z,18.60
2023-05-05T08:06:09.634Z,18.90
2023-05-05T08:08:39.352Z,19.00
2023-05-05T08:11:08.918Z,19.00
2023-05-05T08:13:42.926Z,19.10
2023-05-05T08:16:09.904Z,19.10
2023-05-05T08:18:38.399Z,19.10
2023-05-05T08:21:10.691Z,19.20
2023-05-05T08:23:40.249Z,19.20
2023-05-05T08:26:07.310Z,19.30
2023-05-05T08:28:37.361Z,19.30
2023-05-05T08:31:05.523Z,19.30
2023-05-05T08:33:32.672Z,19.40
2023-05-05T08:35:59.601Z,19.70
2023-05-05T08:38:26.834Z,19.90
2023-05-05T08:40:53.528Z,20.20
2023-05-05T08:43:22.819Z,20.50
2023-05-05T08:45:51.419Z,20.70
2023-05-05T08:48:23.238Z,20.70
2023-05-05T08:50:59.947Z,20.80
2023-05-05T08:53:55.071Z,20.70
2023-05-05T08:56:22.390Z,20.80
2023-05-05T08:58:50.946Z,21.00
2023-05-05T09:01:18.596Z,21.00
2023-05-05T09:03:46.233Z,21.10
2023-05-05T09:06:13.398Z,21.20
2023-05-05T09:08:41.197Z,21.40
2023-05-05T09:11:07.970Z,21.40
2023-05-05T09:13:34.850Z,21.60
2023-05-05T09:16:01.627Z,21.70
2023-05-05T09:18:29.863Z,22.00
2023-05-05T09:20:58.837Z,22.00
2023-05-05T09:23:26.256Z,22.30
2023-05-05T09:26:08.389Z,22.30
2023-05-05T09:28:35.272Z,22.20
2023-05-05T09:31:16.085Z,22.40
2023-05-05T09:33:43.734Z,22.60
2023-05-05T09:36:11.605Z,22.80
2023-05-05T09:38:38.461Z,23.10
2023-05-05T09:41:06.432Z,23.20
2023-05-05T09:43:54.885Z,23.30
2023-05-05T09:46:22.229Z,23.20
2023-05-05T09:48:49.079Z,23.20
2023-05-05T09:51:32.340Z,23.10
2023-05-05T09:53:59.220Z,23.10
2023-05-05T09:56:40.434Z,23.10
2023-05-05T09:59:11.899Z,22.90
2023-05-05T10:01:39.173Z,22.60
2023-05-05T10:04:06.222Z,22.50
2023-05-05T10:06:49.791Z,22.40
2023-05-05T10:09:16.691Z,22.30
2023-05-05T10:11:46.124Z,22.30
2023-05-05T10:14:17.987Z,22.40
2023-05-05T10:16:52.997Z,22.80
2023-05-05T10:19:24.360Z,23.40
2023-05-05T10:21:52.497Z,24.00
2023-05-05T10:24:47.080Z,24.30
2023-05-05T10:27:19.915Z,24.70
2023-05-05T10:30:06.083Z,24.70
2023-05-05T10:32:56.931Z,24.50
2023-05-05T10:35:29.577Z,24.40
2023-05-05T10:37:58.056Z,24.50
2023-05-05T10:40:25.437Z,24.50
2023-05-05T10:42:55.012Z,24.70
2023-05-05T10:45:21.872Z,24.60
2023-05-05T10:47:50.284Z,24.80
2023-05-05T10:50:34.472Z,25.30
2023-05-05T10:53:21.549Z,25.20
2023-05-05T10:56:05.904Z,25.00
2023-05-05T10:58:55.616Z,24.80
2023-05-05T11:01:33.586Z,24.50
2023-05-05T11:04:36.679Z,24.20
2023-05-05T11:07:24.320Z,24.30
2023-05-05T11:09:58.966Z,24.40
2023-05-05T11:12:25.795Z,24.20
2023-05-05T11:15:26.931Z,24.00
2023-05-05T11:18:03.138Z,23.70
2023-05-05T11:20:40.400Z,23.50
2023-05-05T11:23:07.361Z,23.40
2023-05-05T11:25:41.019Z,23.30
2023-05-05T11:28:08.888Z,23.40
2023-05-05T11:30:57.471Z,23.30
2023-05-05T11:33:31.021Z,23.20
2023-05-05T11:36:07.181Z,22.90
2023-05-05T11:39:10.168Z,22.80
2023-05-05T11:42:12.463Z,23.10
2023-05-05T11:44:39.375Z,23.50
2023-05-05T11:47:06.104Z,23.50
2023-05-05T11:49:38.053Z,23.20
2023-05-05T11:52:10.399Z,23.10
2023-05-05T11:54:41.943Z,22.90
2023-05-05T11:57:09.123Z,23.00
2023-05-05T11:59:59.285Z,23.00
2023-05-05T12:02:27.892Z,23.20
2023-05-05T12:04:56.083Z,23.40
2023-05-05T12:07:26.470Z,23.40
2023-05-05T12:09:53.659Z,23.60
2023-05-05T12:12:20.900Z,23.50
2023-05-05T12:14:53.150Z,23.40
2023-05-05T12:17:20.958Z,23.60
2023-05-05T12:19:49.715Z,23.80
2023-05-05T12:22:20.088Z,24.00
2023-05-05T12:25:13.013Z,23.80
2023-05-05T12:27:39.891Z,24.00
2023-05-05T12:30:16.064Z,24.00
2023-05-05T12:32:43.458Z,24.10
2023-05-05T12:35:11.315Z,23.90
2023-05-05T12:37:38.585Z,24.10
2023-05-05T12:40:08.758Z,24.10
2023-05-05T12:42:39.967Z,24.30
2023-05-05T12:45:15.903Z,24.30
2023-05-05T12:47:44.061Z,24.30
2023-05-05T12:50:11.183Z,24.50
2023-05-05T12:52:43.169Z,24.60
2023-05-05T12:55:11.212Z,24.90
2023-05-05T12:57:38.631Z,25.00
2023-05-05T13:00:16.655Z,25.10
2023-05-05T13:02:43.814Z,25.20
2023-05-05T13:05:10.872Z,25.10
2023-05-05T13:07:50.136Z,25.10
2023-05-05T13:10:16.918Z,25.00
2023-05-05T13:12:43.670Z,24.80
2023-05-05T13:15:11.302Z,24.40
2023-05-05T13:17:38.195Z,24.50
2023-05-05T13:20:06.984Z,24.60
2023-05-05T13:22:33.772Z,24.70
2023-05-05T13:25:00.800Z,24.80
2023-05-05T13:27:27.741Z,24.90
2023-05-05T13:29:54.576Z,24.70
2023-05-05T13:32:21.448Z,25.00
2023-05-05T13:34:48.259Z,25.20
2023-05-05T13:37:18.067Z,25.40
2023-05-05T13:39:44.950Z,25.40
2023-05-05T13:42:11.656Z,25.30
2023-05-05T13:44:38.687Z,25.30
2023-05-05T13:47:05.671Z,25.40
2023-05-05T13:49:32.648Z,25.30
2023-05-05T13:51:59.505Z,25.20
2023-05-05T13:54:26.259Z,25.20
2023-05-05T13:56:53.116Z,25.20
2023-05-05T13:59:19.884Z,25.30
2023-05-05T14:01:46.846Z,25.30
2023-05-05T14:04:13.677Z,25.10
2023-05-05T14:06:40.451Z,25.00
2023-05-05T14:09:08.078Z,25.00
2023-05-05T14:11:34.884Z,25.00
2023-05-05T14:14:01.763Z,25.00
2023-05-05T14:16:28.654Z,24.80
2023-05-05T14:18:55.419Z,24.80
2023-05-05T14:21:22.228Z,24.80
2023-05-05T14:23:49.092Z,24.90
2023-05-05T14:26:16.185Z,24.80
2023-05-05T14:28:43.646Z,24.80
2023-05-05T14:31:11.318Z,24.60
2023-05-05T14:33:38.269Z,24.40
2023-05-05T14:36:05.502Z,24.20
2023-05-05T14:38:32.429Z,24.20
2023-05-05T14:40:59.552Z,24.10
2023-05-05T14:43:26.356Z,24.10
2023-05-05T15:23:08.179Z,24.30
2023-05-05T15:25:47.880Z,24.00
2023-05-05T15:31:02.616Z,23.90
2023-05-05T15:36:31.520Z,23.90
2023-05-05T15:39:14.534Z,23.90
2023-05-05T16:06:59.537Z,23.40
2023-05-05T16:10:56.331Z,23.50
2023-05-05T17:55:29.467Z,18.80
2023-05-05T17:58:16.382Z,18.40
2023-05-05T18:00:43.113Z,17.10
2023-05-05T18:03:10.154Z,16.30
2023-05-05T18:05:37.108Z,15.70
2023-05-05T18:08:04.083Z,15.40
2023-05-05T18:10:31.167Z,15.10
2023-05-05T18:13:00.404Z,15.10
2023-05-05T18:15:32.956Z,15.10
2023-05-05T18:17:59.805Z,15.20
2023-05-05T18:20:26.873Z,15.20
2023-05-05T18:22:54.019Z,15.20
2023-05-05T18:25:21.011Z,14.80
2023-05-05T18:27:48.254Z,14.10
2023-05-05T18:30:23.570Z,13.70
2023-05-05T18:32:52.221Z,13.20
2023-05-05T18:35:20.278Z,12.90
2023-05-05T18:37:47.812Z,12.70
2023-05-05T18:43:00.971Z,12.70
2023-05-05T18:45:28.077Z,12.80
2023-05-05T18:47:55.022Z,12.80
2023-05-05T18:50:21.921Z,12.80
2023-05-05T18:52:49.172Z,12.80
2023-05-05T18:55:15.902Z,12.80
2023-05-05T18:57:42.762Z,12.80
2023-05-05T19:00:21.990Z,12.90
2023-05-05T19:11:09.598Z,13.10
2023-05-05T19:16:13.435Z,13.20
2023-05-05T19:18:40.320Z,13.20
2023-05-05T19:21:07.168Z,13.20
2023-05-05T19:23:36.129Z,13.30
2023-05-05T19:26:03.797Z,13.30
2023-05-05T19:28:30.810Z,13.30
2023-05-05T19:30:57.630Z,13.30
2023-05-05T19:33:24.496Z,13.20
2023-05-05T19:35:52.464Z,13.20
2023-05-05T19:38:20.034Z,13.10
2023-05-05T19:40:47.787Z,13.10
2023-05-05T19:43:15.045Z,13.10
2023-05-05T19:45:41.773Z,13.10
2023-05-05T19:48:08.558Z,13.10
2023-05-05T19:50:35.311Z,13.00
2023-05-05T19:53:04.919Z,13.00
2023-05-05T19:55:32.230Z,12.90
2023-05-05T19:57:59.025Z,12.80
2023-05-05T20:00:25.853Z,12.60
2023-05-05T20:02:52.684Z,12.50
2023-05-05T20:05:19.579Z,12.40
2023-05-05T20:07:47.012Z,12.40
2023-05-05T20:10:14.016Z,12.20
2023-05-05T20:12:48.919Z,12.20
2023-05-05T20:15:19.696Z,12.10
2023-05-05T20:17:49.479Z,12.10
2023-05-05T20:20:22.231Z,12.10
2023-05-05T20:22:49.716Z,12.00
2023-05-05T20:25:16.765Z,12.00
2023-05-05T20:27:44.364Z,12.00
2023-05-05T20:30:12.305Z,11.90
2023-05-05T20:32:39.412Z,11.90
2023-05-05T20:35:07.514Z,11.90
2023-05-05T20:37:34.358Z,11.90
2023-05-05T20:40:01.233Z,11.90
2023-05-05T20:42:29.703Z,11.90
2023-05-05T20:44:56.883Z,11.90
2023-05-05T20:47:24.288Z,11.90
2023-05-05T20:49:52.302Z,11.90
2023-05-05T20:52:19.461Z,11.90
2023-05-05T20:54:46.270Z,11.90
2023-05-05T20:57:13.080Z,12.00
2023-05-05T20:59:39.845Z,12.00
2023-05-05T21:02:07.392Z,12.00
2023-05-05T21:04:34.182Z,12.00
2023-05-05T21:07:01.349Z,12.10
2023-05-05T21:09:28.142Z,12.10
2023-05-05T21:11:55.077Z,12.10
2023-05-05T21:14:22.239Z,12.10
2023-05-05T21:16:49.129Z,12.20
2023-05-05T21:19:16.460Z,12.20
2023-05-05T21:21:43.217Z,12.20
2023-05-05T21:24:10.570Z,12.20
2023-05-05T21:26:37.305Z,12.20
2023-05-05T21:29:04.078Z,12.20
2023-05-05T21:31:30.844Z,12.20
2023-05-05T21:33:57.584Z,12.20
2023-05-05T21:36:24.790Z,12.20
2023-05-05T21:38:51.599Z,12.20
2023-05-05T21:41:18.411Z,12.20
2023-05-05T21:43:45.264Z,12.20
2023-05-05T21:46:12.183Z,12.20
2023-05-05T21:48:39.995Z,12.10
2023-05-05T21:51:06.914Z,12.10
2023-05-05T21:53:33.804Z,12.10
2023-05-05T21:56:01.115Z,12.00
2023-05-05T21:58:27.930Z,11.90
2023-05-05T22:00:54.833Z,11.90
2023-05-05T22:03:21.898Z,11.90
2023-05-05T22:05:48.783Z,11.90
2023-05-05T22:08:15.563Z,11.80
2023-05-05T22:10:42.478Z,11.80
2023-05-05T22:13:10.615Z,11.80
2023-05-05T22:15:45.796Z,11.80
2023-05-05T22:18:14.052Z,11.90
2023-05-05T22:20:41.163Z,11.80
2023-05-05T22:23:08.108Z,11.80
2023-05-05T22:25:35.170Z,11.70
2023-05-05T22:28:02.120Z,11.70
2023-05-05T22:30:29.013Z,11.70
2023-05-05T22:32:55.814Z,11.70
2023-05-05T22:35:22.732Z,11.70
2023-05-05T22:37:49.651Z,11.70
2023-05-05T22:40:16.568Z,11.70
2023-05-05T22:42:43.514Z,11.70
2023-05-05T22:45:11.272Z,11.60
2023-05-05T22:47:38.240Z,11.60
2023-05-05T22:50:05.636Z,11.60
2023-05-05T22:52:32.447Z,11.50
2023-05-05T22:54:59.247Z,11.50
2023-05-05T22:57:26.253Z,11.50
2023-05-05T22:59:53.092Z,11.40
2023-05-05T23:02:20.026Z,11.40
2023-05-05T23:04:46.824Z,11.40
2023-05-05T23:07:13.777Z,11.40
2023-05-05T23:09:41.138Z,11.40
2023-05-05T23:12:08.017Z,11.40
2023-05-05T23:14:36.021Z,11.40
2023-05-05T23:17:03.034Z,11.50
2023-05-05T23:19:32.418Z,11.50
2023-05-05T23:21:59.827Z,11.50
2023-05-05T23:24:27.415Z,11.50
2023-05-05T23:26:54.845Z,11.50
2023-05-05T23:29:21.644Z,11.50
2023-05-05T23:31:48.476Z,11.50
2023-05-05T23:34:15.417Z,11.50
2023-05-05T23:36:42.476Z,11.50
2023-05-05T23:39:09.334Z,11.50
2023-05-05T23:41:36.463Z,11.50
2023-05-05T23:44:03.446Z,11.50
2023-05-05T23:46:30.620Z,11.50
2023-05-05T23:48:57.562Z,11.50
2023-05-05T23:51:24.728Z,11.40
2023-05-05T23:53:51.944Z,11.40
2023-05-05T23:56:18.794Z,11.40
2023-05-05T23:58:45.622Z,11.40
